sensor_id;sensor_type;location;lat;lon;timestamp;pressure;altitude;pressure_sealevel;temperature;humidity
52855;BME280;38719;51.418;7.286;2022-07-06T00:00:25;100680.91;;;17.60;55.51
52855;BME280;38719;51.418;7.286;2022-07-06T00:02:52;100680.22;;;18.14;54.27
52855;BME280;38719;51.418;7.286;2022-07-06T00:05:20;100670.31;;;18.00;54.65
52855;BME280;38719;51.418;7.286;2022-07-06T00:07:47;100677.19;;;18.19;53.50
52855;BME280;38719;51.418;7.286;2022-07-06T00:10:15;100680.78;;;17.91;54.29
52855;BME280;38719;51.418;7.286;2022-07-06T00:12:42;100673.19;;;18.12;52.70
52855;BME280;38719;51.418;7.286;2022-07-06T00:15:10;100678.78;;;17.51;54.19
52855;BME280;38719;51.418;7.286;2022-07-06T00:17:39;100687.09;;;17.62;54.07
52855;BME280;38719;51.418;7.286;2022-07-06T00:20:07;100685.53;;;17.58;54.18
52855;BME280;38719;51.418;7.286;2022-07-06T00:22:35;100677.94;;;17.65;54.05
52855;BME280;38719;51.418;7.286;2022-07-06T00:25:03;100694.00;;;17.52;53.71
52855;BME280;38719;51.418;7.286;2022-07-06T00:27:31;100686.09;;;17.34;54.67
52855;BME280;38719;51.418;7.286;2022-07-06T00:29:59;100689.41;;;17.68;53.93
52855;BME280;38719;51.418;7.286;2022-07-06T00:32:26;100691.69;;;18.03;52.63
52855;BME280;38719;51.418;7.286;2022-07-06T00:34:55;100680.53;;;17.81;53.60
52855;BME280;38719;51.418;7.286;2022-07-06T00:37:23;100682.28;;;17.67;53.73
52855;BME280;38719;51.418;7.286;2022-07-06T00:39:50;100691.88;;;17.57;53.85
52855;BME280;38719;51.418;7.286;2022-07-06T00:42:18;100685.69;;;17.12;55.86
52855;BME280;38719;51.418;7.286;2022-07-06T00:44:45;100683.91;;;17.70;53.56
52855;BME280;38719;51.418;7.286;2022-07-06T00:47:13;100682.84;;;17.44;54.08
52855;BME280;38719;51.418;7.286;2022-07-06T00:49:41;100687.75;;;17.95;53.15
52855;BME280;38719;51.418;7.286;2022-07-06T00:52:27;100682.06;;;17.85;53.01
52855;BME280;38719;51.418;7.286;2022-07-06T00:54:55;100686.88;;;17.51;53.66
52855;BME280;38719;51.418;7.286;2022-07-06T00:57:23;100689.78;;;17.48;54.47
52855;BME280;38719;51.418;7.286;2022-07-06T00:59:50;100684.56;;;17.45;54.70
52855;BME280;38719;51.418;7.286;2022-07-06T01:02:18;100687.53;;;17.26;55.68
52855;BME280;38719;51.418;7.286;2022-07-06T01:04:46;100686.44;;;16.99;55.17
52855;BME280;38719;51.418;7.286;2022-07-06T01:07:14;100688.16;;;16.70;56.24
52855;BME280;38719;51.418;7.286;2022-07-06T01:09:43;100701.72;;;16.36;57.47
52855;BME280;38719;51.418;7.286;2022-07-06T01:12:11;100700.34;;;15.97;57.97
52855;BME280;38719;51.418;7.286;2022-07-06T01:14:39;100703.56;;;16.04;57.94
52855;BME280;38719;51.418;7.286;2022-07-06T01:17:07;100704.31;;;16.22;57.65
52855;BME280;38719;51.418;7.286;2022-07-06T01:19:34;100701.56;;;15.91;58.43
52855;BME280;38719;51.418;7.286;2022-07-06T01:22:03;100703.28;;;16.08;57.60
52855;BME280;38719;51.418;7.286;2022-07-06T01:24:31;100692.53;;;16.08;57.62
52855;BME280;38719;51.418;7.286;2022-07-06T01:27:02;100707.97;;;16.05;57.49
52855;BME280;38719;51.418;7.286;2022-07-06T01:29:31;100698.25;;;16.02;57.79
52855;BME280;38719;51.418;7.286;2022-07-06T01:31:59;100702.94;;;15.99;57.93
52855;BME280;38719;51.418;7.286;2022-07-06T01:34:27;100691.00;;;16.04;57.21
52855;BME280;38719;51.418;7.286;2022-07-06T01:40:43;100687.09;;;16.72;55.32
52855;BME280;38719;51.418;7.286;2022-07-06T01:43:11;100687.59;;;17.10;53.81
52855;BME280;38719;51.418;7.286;2022-07-06T01:45:38;100680.41;;;16.80;54.76
52855;BME280;38719;51.418;7.286;2022-07-06T01:48:07;100681.84;;;16.85;54.45
52855;BME280;38719;51.418;7.286;2022-07-06T01:50:34;100681.66;;;17.04;53.59
52855;BME280;38719;51.418;7.286;2022-07-06T01:53:02;100674.94;;;17.26;53.43
52855;BME280;38719;51.418;7.286;2022-07-06T01:55:29;100675.00;;;17.10;53.59
52855;BME280;38719;51.418;7.286;2022-07-06T01:57:58;100673.84;;;17.00;54.17
52855;BME280;38719;51.418;7.286;2022-07-06T02:00:26;100676.41;;;16.40;55.39
52855;BME280;38719;51.418;7.286;2022-07-06T02:02:53;100681.44;;;16.31;56.18
52855;BME280;38719;51.418;7.286;2022-07-06T02:05:21;100687.50;;;16.18;56.54
52855;BME280;38719;51.418;7.286;2022-07-06T02:07:48;100681.19;;;16.03;57.03
52855;BME280;38719;51.418;7.286;2022-07-06T02:10:16;100685.59;;;15.88;57.50
52855;BME280;38719;51.418;7.286;2022-07-06T02:12:43;100681.72;;;16.10;57.31
52855;BME280;38719;51.418;7.286;2022-07-06T02:15:12;100686.00;;;16.44;56.39
52855;BME280;38719;51.418;7.286;2022-07-06T02:17:40;100686.00;;;15.80;57.93
52855;BME280;38719;51.418;7.286;2022-07-06T02:20:09;100687.97;;;15.61;58.71
52855;BME280;38719;51.418;7.286;2022-07-06T02:22:36;100681.53;;;15.47;59.24
52855;BME280;38719;51.418;7.286;2022-07-06T02:25:05;100692.38;;;15.62;58.80
52855;BME280;38719;51.418;7.286;2022-07-06T02:27:32;100683.66;;;15.74;58.44
52855;BME280;38719;51.418;7.286;2022-07-06T02:30:00;100685.75;;;15.69;58.71
52855;BME280;38719;51.418;7.286;2022-07-06T02:32:29;100689.28;;;15.36;59.27
52855;BME280;38719;51.418;7.286;2022-07-06T02:34:56;100684.34;;;15.28;59.87
52855;BME280;38719;51.418;7.286;2022-07-06T02:37:25;100679.34;;;15.21;60.12
52855;BME280;38719;51.418;7.286;2022-07-06T02:39:52;100674.56;;;15.27;60.06
52855;BME280;38719;51.418;7.286;2022-07-06T02:42:20;100683.91;;;15.36;60.27
52855;BME280;38719;51.418;7.286;2022-07-06T02:44:47;100683.81;;;15.71;59.19
52855;BME280;38719;51.418;7.286;2022-07-06T02:47:15;100677.84;;;15.32;60.09
52855;BME280;38719;51.418;7.286;2022-07-06T02:49:44;100682.59;;;15.27;60.21
52855;BME280;38719;51.418;7.286;2022-07-06T02:52:11;100680.34;;;15.20;60.83
52855;BME280;38719;51.418;7.286;2022-07-06T02:54:39;100683.16;;;15.17;60.60
52855;BME280;38719;51.418;7.286;2022-07-06T02:57:06;100692.69;;;15.05;61.30
52855;BME280;38719;51.418;7.286;2022-07-06T02:59:34;100687.28;;;14.89;61.77
52855;BME280;38719;51.418;7.286;2022-07-06T03:02:03;100685.44;;;15.07;61.47
52855;BME280;38719;51.418;7.286;2022-07-06T03:04:30;100687.59;;;15.00;61.51
52855;BME280;38719;51.418;7.286;2022-07-06T03:06:59;100691.28;;;14.80;62.02
52855;BME280;38719;51.418;7.286;2022-07-06T03:09:27;100693.88;;;14.64;62.86
52855;BME280;38719;51.418;7.286;2022-07-06T03:11:54;100691.69;;;14.90;62.20
52855;BME280;38719;51.418;7.286;2022-07-06T03:14:22;100696.09;;;15.26;60.95
52855;BME280;38719;51.418;7.286;2022-07-06T03:16:51;100691.69;;;14.90;61.75
52855;BME280;38719;51.418;7.286;2022-07-06T03:19:19;100701.09;;;14.44;63.20
52855;BME280;38719;51.418;7.286;2022-07-06T03:21:46;100698.53;;;15.13;61.60
52855;BME280;38719;51.418;7.286;2022-07-06T03:24:15;100706.19;;;14.86;61.85
52855;BME280;38719;51.418;7.286;2022-07-06T03:26:43;100715.63;;;14.39;63.76
52855;BME280;38719;51.418;7.286;2022-07-06T03:29:10;100716.84;;;14.70;62.92
52855;BME280;38719;51.418;7.286;2022-07-06T03:31:38;100713.22;;;15.06;61.26
52855;BME280;38719;51.418;7.286;2022-07-06T03:34:05;100708.66;;;14.54;63.12
52855;BME280;38719;51.418;7.286;2022-07-06T03:36:33;100709.13;;;14.81;62.60
52855;BME280;38719;51.418;7.286;2022-07-06T03:39:04;100704.38;;;14.69;62.63
52855;BME280;38719;51.418;7.286;2022-07-06T03:41:33;100708.00;;;14.67;62.90
52855;BME280;38719;51.418;7.286;2022-07-06T03:44:01;100711.34;;;14.54;63.20
52855;BME280;38719;51.418;7.286;2022-07-06T03:46:28;100704.13;;;14.37;63.73
52855;BME280;38719;51.418;7.286;2022-07-06T03:48:56;100705.75;;;14.02;64.81
52855;BME280;38719;51.418;7.286;2022-07-06T03:51:24;100706.34;;;13.90;65.60
52855;BME280;38719;51.418;7.286;2022-07-06T03:53:51;100705.97;;;13.98;64.81
52855;BME280;38719;51.418;7.286;2022-07-06T03:56:19;100709.66;;;14.14;64.79
52855;BME280;38719;51.418;7.286;2022-07-06T03:58:58;100705.00;;;14.37;63.91
52855;BME280;38719;51.418;7.286;2022-07-06T04:01:27;100700.09;;;14.28;63.57
52855;BME280;38719;51.418;7.286;2022-07-06T04:03:56;100699.22;;;14.27;64.42
52855;BME280;38719;51.418;7.286;2022-07-06T04:06:24;100709.97;;;14.45;64.39
52855;BME280;38719;51.418;7.286;2022-07-06T04:08:51;100707.34;;;14.26;63.98
52855;BME280;38719;51.418;7.286;2022-07-06T04:11:19;100704.75;;;14.05;65.34
52855;BME280;38719;51.418;7.286;2022-07-06T04:13:46;100708.72;;;14.15;65.13
52855;BME280;38719;51.418;7.286;2022-07-06T04:16:15;100706.47;;;13.87;65.75
52855;BME280;38719;51.418;7.286;2022-07-06T04:18:43;100711.47;;;14.14;65.63
52855;BME280;38719;51.418;7.286;2022-07-06T04:21:10;100719.38;;;14.17;64.87
52855;BME280;38719;51.418;7.286;2022-07-06T04:23:38;100717.50;;;14.00;65.63
52855;BME280;38719;51.418;7.286;2022-07-06T04:26:06;100716.84;;;14.50;64.34
52855;BME280;38719;51.418;7.286;2022-07-06T04:28:33;100718.69;;;14.31;64.31
52855;BME280;38719;51.418;7.286;2022-07-06T04:31:01;100719.72;;;14.09;65.30
52855;BME280;38719;51.418;7.286;2022-07-06T04:33:30;100715.38;;;14.26;65.23
52855;BME280;38719;51.418;7.286;2022-07-06T04:35:57;100717.38;;;14.21;65.19
52855;BME280;38719;51.418;7.286;2022-07-06T04:38:25;100722.69;;;14.22;65.16
52855;BME280;38719;51.418;7.286;2022-07-06T04:40:52;100711.97;;;14.22;65.18
52855;BME280;38719;51.418;7.286;2022-07-06T04:43:19;100719.00;;;14.25;65.37
52855;BME280;38719;51.418;7.286;2022-07-06T04:45:47;100715.50;;;14.23;65.38
52855;BME280;38719;51.418;7.286;2022-07-06T04:48:15;100719.06;;;14.23;65.68
52855;BME280;38719;51.418;7.286;2022-07-06T04:50:43;100718.09;;;14.24;66.01
52855;BME280;38719;51.418;7.286;2022-07-06T04:53:11;100709.78;;;14.30;66.38
52855;BME280;38719;51.418;7.286;2022-07-06T04:55:39;100718.00;;;14.45;65.31
52855;BME280;38719;51.418;7.286;2022-07-06T04:58:06;100722.22;;;14.50;65.22
52855;BME280;38719;51.418;7.286;2022-07-06T05:00:34;100721.41;;;14.48;65.18
52855;BME280;38719;51.418;7.286;2022-07-06T05:03:01;100716.28;;;14.44;65.76
52855;BME280;38719;51.418;7.286;2022-07-06T05:05:29;100716.03;;;14.31;66.62
52855;BME280;38719;51.418;7.286;2022-07-06T05:07:58;100722.97;;;14.35;66.56
52855;BME280;38719;51.418;7.286;2022-07-06T05:10:25;100726.97;;;14.63;65.91
52855;BME280;38719;51.418;7.286;2022-07-06T05:12:54;100716.78;;;15.24;63.70
52855;BME280;38719;51.418;7.286;2022-07-06T05:15:22;100718.97;;;14.61;65.59
52855;BME280;38719;51.418;7.286;2022-07-06T05:17:49;100720.97;;;14.58;65.47
52855;BME280;38719;51.418;7.286;2022-07-06T05:20:17;100722.91;;;14.91;64.97
52855;BME280;38719;51.418;7.286;2022-07-06T05:22:45;100722.34;;;15.37;63.78
52855;BME280;38719;51.418;7.286;2022-07-06T05:25:14;100714.88;;;15.08;64.07
52855;BME280;38719;51.418;7.286;2022-07-06T05:27:41;100723.53;;;14.96;64.91
52855;BME280;38719;51.418;7.286;2022-07-06T05:30:09;100716.78;;;15.06;64.13
52855;BME280;38719;51.418;7.286;2022-07-06T05:32:37;100728.59;;;15.37;63.74
52855;BME280;38719;51.418;7.286;2022-07-06T05:35:05;100715.34;;;15.17;64.22
52855;BME280;38719;51.418;7.286;2022-07-06T05:37:53;100724.19;;;15.19;63.94
52855;BME280;38719;51.418;7.286;2022-07-06T05:40:22;100728.50;;;15.39;64.04
52855;BME280;38719;51.418;7.286;2022-07-06T05:42:49;100724.13;;;15.54;63.37
52855;BME280;38719;51.418;7.286;2022-07-06T05:45:17;100727.53;;;15.91;61.86
52855;BME280;38719;51.418;7.286;2022-07-06T05:47:44;100728.50;;;15.39;63.39
52855;BME280;38719;51.418;7.286;2022-07-06T05:50:29;100726.63;;;15.74;62.63
52855;BME280;38719;51.418;7.286;2022-07-06T05:52:59;100735.38;;;16.11;61.72
52855;BME280;38719;51.418;7.286;2022-07-06T05:55:39;100735.00;;;15.35;63.66
52855;BME280;38719;51.418;7.286;2022-07-06T05:58:07;100736.09;;;15.64;62.84
52855;BME280;38719;51.418;7.286;2022-07-06T06:00:34;100739.75;;;15.63;62.98
52855;BME280;38719;51.418;7.286;2022-07-06T06:03:02;100735.41;;;15.60;63.74
52855;BME280;38719;51.418;7.286;2022-07-06T06:05:30;100735.78;;;15.70;62.74
52855;BME280;38719;51.418;7.286;2022-07-06T06:07:57;100738.91;;;15.78;62.82
52855;BME280;38719;51.418;7.286;2022-07-06T06:10:25;100736.66;;;16.20;62.05
52855;BME280;38719;51.418;7.286;2022-07-06T06:12:54;100742.81;;;16.06;62.13
52855;BME280;38719;51.418;7.286;2022-07-06T06:15:21;100746.88;;;16.30;61.43
52855;BME280;38719;51.418;7.286;2022-07-06T06:17:49;100749.50;;;16.31;61.21
52855;BME280;38719;51.418;7.286;2022-07-06T06:20:16;100746.53;;;16.20;61.47
52855;BME280;38719;51.418;7.286;2022-07-06T06:22:45;100756.66;;;16.79;59.62
52855;BME280;38719;51.418;7.286;2022-07-06T06:25:14;100752.34;;;16.60;59.75
52855;BME280;38719;51.418;7.286;2022-07-06T06:27:41;100751.31;;;16.47;60.52
52855;BME280;38719;51.418;7.286;2022-07-06T06:30:12;100753.59;;;16.85;59.68
52855;BME280;38719;51.418;7.286;2022-07-06T06:32:40;100759.34;;;16.95;59.43
52855;BME280;38719;51.418;7.286;2022-07-06T06:35:08;100750.31;;;16.80;59.04
52855;BME280;38719;51.418;7.286;2022-07-06T06:37:36;100749.66;;;17.37;57.49
52855;BME280;38719;51.418;7.286;2022-07-06T06:40:05;100744.03;;;17.56;56.78
52855;BME280;38719;51.418;7.286;2022-07-06T06:42:35;100745.19;;;17.95;55.90
52855;BME280;38719;51.418;7.286;2022-07-06T06:45:04;100741.34;;;17.99;54.86
52855;BME280;38719;51.418;7.286;2022-07-06T06:47:33;100748.81;;;17.65;56.88
52855;BME280;38719;51.418;7.286;2022-07-06T06:50:00;100756.34;;;18.18;54.93
52855;BME280;38719;51.418;7.286;2022-07-06T06:52:28;100751.91;;;18.17;54.59
52855;BME280;38719;51.418;7.286;2022-07-06T06:55:06;100752.88;;;17.87;56.17
52855;BME280;38719;51.418;7.286;2022-07-06T06:57:34;100749.22;;;18.17;54.30
52855;BME280;38719;51.418;7.286;2022-07-06T07:00:03;100757.22;;;18.46;53.86
52855;BME280;38719;51.418;7.286;2022-07-06T07:02:30;100750.66;;;18.50;52.79
52855;BME280;38719;51.418;7.286;2022-07-06T07:04:59;100754.09;;;18.66;52.99
52855;BME280;38719;51.418;7.286;2022-07-06T07:07:27;100753.41;;;19.05;51.78
52855;BME280;38719;51.418;7.286;2022-07-06T07:09:54;100756.38;;;18.45;53.46
52855;BME280;38719;51.418;7.286;2022-07-06T07:12:22;100757.19;;;18.60;52.83
52855;BME280;38719;51.418;7.286;2022-07-06T07:14:50;100751.44;;;19.07;50.59
52855;BME280;38719;51.418;7.286;2022-07-06T07:17:17;100757.47;;;18.70;50.59
52855;BME280;38719;51.418;7.286;2022-07-06T07:19:45;100763.72;;;18.98;50.03
52855;BME280;38719;51.418;7.286;2022-07-06T07:22:14;100759.53;;;18.79;51.44
52855;BME280;38719;51.418;7.286;2022-07-06T07:24:41;100763.59;;;19.40;49.87
52855;BME280;38719;51.418;7.286;2022-07-06T07:27:09;100759.78;;;19.16;49.64
52855;BME280;38719;51.418;7.286;2022-07-06T07:29:36;100766.22;;;19.54;48.68
52855;BME280;38719;51.418;7.286;2022-07-06T07:32:04;100764.03;;;19.59;47.93
52855;BME280;38719;51.418;7.286;2022-07-06T07:34:32;100765.78;;;19.60;47.85
52855;BME280;38719;51.418;7.286;2022-07-06T07:36:59;100770.03;;;19.24;48.89
52855;BME280;38719;51.418;7.286;2022-07-06T07:39:28;100776.59;;;19.07;49.51
52855;BME280;38719;51.418;7.286;2022-07-06T07:41:56;100778.94;;;18.30;51.37
52855;BME280;38719;51.418;7.286;2022-07-06T07:44:23;100773.00;;;18.52;51.17
52855;BME280;38719;51.418;7.286;2022-07-06T07:46:53;100772.94;;;19.08;49.16
52855;BME280;38719;51.418;7.286;2022-07-06T07:49:21;100771.09;;;19.09;50.07
52855;BME280;38719;51.418;7.286;2022-07-06T07:51:49;100770.84;;;18.72;50.88
52855;BME280;38719;51.418;7.286;2022-07-06T07:54:16;100767.91;;;19.42;48.90
52855;BME280;38719;51.418;7.286;2022-07-06T07:56:45;100770.84;;;19.91;47.92
52855;BME280;38719;51.418;7.286;2022-07-06T07:59:13;100765.09;;;19.44;48.39
52855;BME280;38719;51.418;7.286;2022-07-06T08:01:40;100773.97;;;18.51;50.63
52855;BME280;38719;51.418;7.286;2022-07-06T08:04:08;100769.34;;;18.53;49.76
52855;BME280;38719;51.418;7.286;2022-07-06T08:06:35;100767.19;;;19.00;49.26
52855;BME280;38719;51.418;7.286;2022-07-06T08:09:03;100774.81;;;19.21;47.69
52855;BME280;38719;51.418;7.286;2022-07-06T08:11:33;100773.44;;;19.00;47.83
52855;BME280;38719;51.418;7.286;2022-07-06T08:14:03;100770.81;;;18.59;48.76
52855;BME280;38719;51.418;7.286;2022-07-06T08:16:31;100783.50;;;18.84;48.80
52855;BME280;38719;51.418;7.286;2022-07-06T08:18:59;100771.47;;;19.43;47.16
52855;BME280;38719;51.418;7.286;2022-07-06T08:21:33;100770.72;;;19.41;47.38
52855;BME280;38719;51.418;7.286;2022-07-06T08:24:01;100770.75;;;19.00;47.53
52855;BME280;38719;51.418;7.286;2022-07-06T08:26:29;100775.19;;;18.60;48.89
52855;BME280;38719;51.418;7.286;2022-07-06T08:28:57;100775.47;;;18.28;50.24
52855;BME280;38719;51.418;7.286;2022-07-06T08:31:26;100772.22;;;18.64;49.06
52855;BME280;38719;51.418;7.286;2022-07-06T08:34:14;100766.69;;;18.66;48.75
52855;BME280;38719;51.418;7.286;2022-07-06T08:36:42;100766.28;;;19.27;48.00
52855;BME280;38719;51.418;7.286;2022-07-06T08:39:09;100756.72;;;18.81;48.30
52855;BME280;38719;51.418;7.286;2022-07-06T08:41:38;100757.00;;;18.91;48.59
52855;BME280;38719;51.418;7.286;2022-07-06T08:44:08;100755.88;;;19.08;48.42
52855;BME280;38719;51.418;7.286;2022-07-06T08:46:39;100747.59;;;19.24;48.09
52855;BME280;38719;51.418;7.286;2022-07-06T08:49:07;100758.22;;;18.99;47.63
52855;BME280;38719;51.418;7.286;2022-07-06T08:51:35;100755.75;;;18.55;49.14
52855;BME280;38719;51.418;7.286;2022-07-06T08:54:03;100766.06;;;18.90;48.91
52855;BME280;38719;51.418;7.286;2022-07-06T08:56:31;100760.38;;;18.94;48.02
52855;BME280;38719;51.418;7.286;2022-07-06T08:58:59;100767.84;;;19.04;47.01
52855;BME280;38719;51.418;7.286;2022-07-06T09:01:27;100770.63;;;18.75;47.10
52855;BME280;38719;51.418;7.286;2022-07-06T09:03:56;100776.78;;;18.91;47.25
52855;BME280;38719;51.418;7.286;2022-07-06T09:06:27;100770.00;;;18.98;48.15
52855;BME280;38719;51.418;7.286;2022-07-06T09:08:56;100772.03;;;19.74;46.11
52855;BME280;38719;51.418;7.286;2022-07-06T09:11:24;100766.94;;;19.82;45.71
52855;BME280;38719;51.418;7.286;2022-07-06T09:13:52;100771.38;;;19.57;46.25
52855;BME280;38719;51.418;7.286;2022-07-06T09:16:25;100765.56;;;20.39;44.44
52855;BME280;38719;51.418;7.286;2022-07-06T09:19:06;100772.25;;;20.09;45.16
52855;BME280;38719;51.418;7.286;2022-07-06T09:21:34;100769.34;;;20.50;43.03
52855;BME280;38719;51.418;7.286;2022-07-06T09:24:06;100768.28;;;20.39;42.48
52855;BME280;38719;51.418;7.286;2022-07-06T09:26:34;100764.25;;;20.82;41.54
52855;BME280;38719;51.418;7.286;2022-07-06T09:29:03;100774.63;;;20.51;42.26
52855;BME280;38719;51.418;7.286;2022-07-06T09:31:32;100772.78;;;20.52;42.97
52855;BME280;38719;51.418;7.286;2022-07-06T09:34:01;100773.56;;;20.04;44.29
52855;BME280;38719;51.418;7.286;2022-07-06T09:36:42;100768.38;;;20.51;43.14
52855;BME280;38719;51.418;7.286;2022-07-06T09:39:21;100757.25;;;20.42;42.52
52855;BME280;38719;51.418;7.286;2022-07-06T09:41:51;100761.38;;;20.35;41.88
52855;BME280;38719;51.418;7.286;2022-07-06T09:44:23;100760.56;;;20.70;41.67
52855;BME280;38719;51.418;7.286;2022-07-06T09:46:53;100757.28;;;21.62;39.98
52855;BME280;38719;51.418;7.286;2022-07-06T09:49:22;100751.50;;;21.89;39.90
52855;BME280;38719;51.418;7.286;2022-07-06T09:51:52;100759.63;;;21.31;40.13
52855;BME280;38719;51.418;7.286;2022-07-06T09:54:20;100765.75;;;20.49;42.01
52855;BME280;38719;51.418;7.286;2022-07-06T09:56:48;100761.88;;;21.49;40.02
52855;BME280;38719;51.418;7.286;2022-07-06T09:59:18;100758.66;;;21.90;39.27
52855;BME280;38719;51.418;7.286;2022-07-06T10:01:50;100764.44;;;20.18;42.26
52855;BME280;38719;51.418;7.286;2022-07-06T10:04:18;100761.91;;;19.90;42.17
52855;BME280;38719;51.418;7.286;2022-07-06T10:06:48;100758.91;;;20.56;41.78
52855;BME280;38719;51.418;7.286;2022-07-06T10:09:18;100767.34;;;20.89;40.59
52855;BME280;38719;51.418;7.286;2022-07-06T10:11:49;100761.09;;;20.51;41.06
52855;BME280;38719;51.418;7.286;2022-07-06T10:14:18;100756.84;;;21.55;39.45
52855;BME280;38719;51.418;7.286;2022-07-06T10:16:47;100762.69;;;20.91;41.14
52855;BME280;38719;51.418;7.286;2022-07-06T10:19:16;100761.78;;;20.79;41.31
52855;BME280;38719;51.418;7.286;2022-07-06T10:21:45;100755.31;;;20.93;41.15
52855;BME280;38719;51.418;7.286;2022-07-06T10:24:13;100756.03;;;21.78;40.56
52855;BME280;38719;51.418;7.286;2022-07-06T10:26:42;100761.59;;;21.76;39.67
52855;BME280;38719;51.418;7.286;2022-07-06T10:29:10;100762.34;;;20.71;40.62
52855;BME280;38719;51.418;7.286;2022-07-06T10:31:39;100768.44;;;20.62;41.13
52855;BME280;38719;51.418;7.286;2022-07-06T10:34:12;100770.97;;;21.01;40.38
52855;BME280;38719;51.418;7.286;2022-07-06T10:36:41;100768.88;;;20.56;41.16
52855;BME280;38719;51.418;7.286;2022-07-06T10:39:09;100759.28;;;21.00;41.19
52855;BME280;38719;51.418;7.286;2022-07-06T10:41:56;100759.97;;;21.73;40.30
52855;BME280;38719;51.418;7.286;2022-07-06T10:44:24;100764.69;;;21.36;39.81
52855;BME280;38719;51.418;7.286;2022-07-06T10:46:53;100760.47;;;21.20;39.98
52855;BME280;38719;51.418;7.286;2022-07-06T10:49:22;100755.19;;;22.00;38.98
52855;BME280;38719;51.418;7.286;2022-07-06T10:52:10;100759.59;;;22.12;39.01
52855;BME280;38719;51.418;7.286;2022-07-06T10:54:39;100758.59;;;21.56;39.55
52855;BME280;38719;51.418;7.286;2022-07-06T10:57:10;100761.88;;;20.77;40.68
52855;BME280;38719;51.418;7.286;2022-07-06T10:59:59;100761.97;;;21.36;39.82
52855;BME280;38719;51.418;7.286;2022-07-06T11:02:37;100760.78;;;20.80;41.32
52855;BME280;38719;51.418;7.286;2022-07-06T11:05:10;100759.78;;;20.57;41.49
52855;BME280;38719;51.418;7.286;2022-07-06T11:07:48;100762.50;;;20.81;40.94
52855;BME280;38719;51.418;7.286;2022-07-06T11:10:16;100756.25;;;20.68;41.39
52855;BME280;38719;51.418;7.286;2022-07-06T11:12:45;100757.88;;;20.83;41.24
52855;BME280;38719;51.418;7.286;2022-07-06T11:15:48;100748.81;;;19.84;42.92
52855;BME280;38719;51.418;7.286;2022-07-06T11:18:19;100751.06;;;20.03;42.26
52855;BME280;38719;51.418;7.286;2022-07-06T11:21:18;100745.84;;;20.26;40.98
52855;BME280;38719;51.418;7.286;2022-07-06T11:23:47;100747.78;;;20.24;40.73
52855;BME280;38719;51.418;7.286;2022-07-06T11:26:16;100749.44;;;20.75;39.92
52855;BME280;38719;51.418;7.286;2022-07-06T11:28:46;100747.38;;;20.78;39.86
52855;BME280;38719;51.418;7.286;2022-07-06T11:31:15;100747.94;;;20.95;39.72
52855;BME280;38719;51.418;7.286;2022-07-06T11:33:45;100737.69;;;21.58;38.49
52855;BME280;38719;51.418;7.286;2022-07-06T11:36:15;100739.72;;;21.44;37.85
52855;BME280;38719;51.418;7.286;2022-07-06T11:38:44;100728.00;;;21.54;37.55
52855;BME280;38719;51.418;7.286;2022-07-06T11:41:12;100740.50;;;21.10;37.70
52855;BME280;38719;51.418;7.286;2022-07-06T11:43:41;100746.78;;;20.62;39.26
52855;BME280;38719;51.418;7.286;2022-07-06T11:46:23;100729.28;;;21.73;37.70
52855;BME280;38719;51.418;7.286;2022-07-06T11:48:53;100733.63;;;21.76;37.31
52855;BME280;38719;51.418;7.286;2022-07-06T11:51:22;100738.66;;;22.81;36.40
52855;BME280;38719;51.418;7.286;2022-07-06T11:53:52;100731.69;;;23.21;34.72
52855;BME280;38719;51.418;7.286;2022-07-06T11:56:22;100733.84;;;22.73;35.61
52855;BME280;38719;51.418;7.286;2022-07-06T11:58:53;100734.69;;;22.18;37.27
52855;BME280;38719;51.418;7.286;2022-07-06T12:01:23;100737.19;;;21.87;38.24
52855;BME280;38719;51.418;7.286;2022-07-06T12:03:51;100737.00;;;22.34;36.93
52855;BME280;38719;51.418;7.286;2022-07-06T12:06:20;100744.81;;;22.05;38.54
52855;BME280;38719;51.418;7.286;2022-07-06T12:08:50;100738.41;;;21.61;39.28
52855;BME280;38719;51.418;7.286;2022-07-06T12:11:19;100745.72;;;21.94;38.68
52855;BME280;38719;51.418;7.286;2022-07-06T12:13:48;100732.25;;;21.93;38.44
52855;BME280;38719;51.418;7.286;2022-07-06T12:16:16;100729.59;;;21.34;39.15
52855;BME280;38719;51.418;7.286;2022-07-06T12:18:46;100737.28;;;22.09;38.83
52855;BME280;38719;51.418;7.286;2022-07-06T12:21:17;100728.84;;;22.57;37.42
52855;BME280;38719;51.418;7.286;2022-07-06T12:23:48;100724.13;;;22.92;36.82
52855;BME280;38719;51.418;7.286;2022-07-06T12:26:18;100716.53;;;24.01;35.13
52855;BME280;38719;51.418;7.286;2022-07-06T12:28:46;100712.47;;;24.46;34.82
52855;BME280;38719;51.418;7.286;2022-07-06T12:31:33;100710.97;;;24.92;33.78
52855;BME280;38719;51.418;7.286;2022-07-06T12:34:02;100704.78;;;25.20;33.46
52855;BME280;38719;51.418;7.286;2022-07-06T12:36:31;100696.50;;;23.71;33.98
52855;BME280;38719;51.418;7.286;2022-07-06T12:38:59;100701.47;;;23.66;35.01
52855;BME280;38719;51.418;7.286;2022-07-06T12:41:28;100696.47;;;22.98;35.30
52855;BME280;38719;51.418;7.286;2022-07-06T12:44:03;100692.91;;;23.40;34.78
52855;BME280;38719;51.418;7.286;2022-07-06T12:46:33;100685.16;;;25.06;32.74
52855;BME280;38719;51.418;7.286;2022-07-06T12:49:10;100686.13;;;24.27;33.47
52855;BME280;38719;51.418;7.286;2022-07-06T12:52:08;100686.88;;;24.68;33.58
52855;BME280;38719;51.418;7.286;2022-07-06T12:54:41;100686.41;;;24.43;33.62
52855;BME280;38719;51.418;7.286;2022-07-06T12:57:11;100678.63;;;24.19;32.86
52855;BME280;38719;51.418;7.286;2022-07-06T12:59:41;100676.81;;;23.89;33.76
52855;BME280;38719;51.418;7.286;2022-07-06T13:02:17;100672.69;;;23.32;33.90
52855;BME280;38719;51.418;7.286;2022-07-06T13:04:55;100674.28;;;23.66;33.41